Etusivu
METAR-TAF:

METAR-TAF

Lentoasemat :

Remada, Tunisia

Leveyspiiri: 32-19N, Pituuspiiri: 010-24E, korkeus merenpinnasta: 300 m

Tämänhetkinen sää

Tämä raportti tehtiin 54 minuuttia sitten, kello 22.00 UTC
Tuuli 5 kn idästä, vaihdellen pohjoisen/koillisen ja kaakon välillä
Lämpötila 23°C
Kosteus 61%
Ilmanpaine 1017 hPa

METAR: DTTD 072200Z AUTO 08005KT 030V130 NCD 23/15 Q1017

Aika: 23:54 (22:54 UTC)


TAF: puuttuu

Säähavainnot ja -ennusteet yli 4000 lentoasemalta (METAR- ja TAF-raportit).

Käytössä olevat sääasemat on merkitty karttaan keltaisilla ja punaisilla pisteillä.

Aseta hiiri pisteen päälle nähdäksesi sääaseman nimen.

Klikkaa sitten nähdäksesi säähavainnot ja -ennusteet.

Kartan vaihtaminen: klikkaa mustalla rastilla varustettuja vihreitä pisteitä, niin voit zoomata sisään; viivalla varustettua vihreää pistettä, niin voit zoomata ulos tai vihreitä nuolia, niin pääset viereisille kartoille.


METAR-TAF: